Matoaka, West Virginia
Current Conditions -  °F | °C
As of 12:52 AM on Tuesday 27 Jan 2015 (Local Time) from KBLF Reporting Station
Overcast Overcast  
Wind Chill: 13°   Ceiling: 1100
Heat Index: 22°   Visibility: 10mi
Dew Point: 16°   Wind: 8mph
Humidity: 78%   Direction: 310°NW
Pressure: 29.75"   Gusts: NA
Location:  37.42°N, 81.24°W
Report Text: KBLF 270552Z AUTO 31007KT 10SM OVC011 M06/M09 A2975 RMK AO2 SLP091 60000 I6002 T10561089 11044 21056 58006
Loading
Personal Weather Stations






























Interactive Weather Map New forecast layout! Learn more

10-Day Weather Forecast

Advertisements
Track Severe Weather on mobile